Terminal Aerodrome Forecast
Issued by NWS Twin Cities, MN

Home | Current Version | Previous Version | Text Only | Print | Product List | Glossary Off
Versions: 1 2 3 4 5 6 7 8 9 10 11 12 13 14 15 16 17

000
FTUS43 KMPX 181120
TAFEAU
TAF
KEAU 181120Z 1812/1912 05007KT P6SM SCT250
     FM181800 11012G20KT P6SM SCT150
     FM190600 12012G20KT 6SM -RA OVC050=

USA.gov is the U.S. government's official web portal to all federal, state and local government web resources and services.